Time;durP1;ratioP1;P1;durP2;ratioP2;P2;SDS_P1;SDS_P2;PMS_P1;PMS_P2;Temp;Humidity;BMP_temperature;BMP_pressure;BME280_temperature;BME280_humidity;BME280_pressure;Samples;Min_cycle;Max_cycle;Signal;HPM_P1;HPM_P2
2022/03/03 00:01:09;;;;;;;15.18;13.60;;;5.40;96.20;;;;;;5090485;28;20200;-88
2022/03/03 00:03:37;;;;;;;15.43;13.35;;;5.40;95.70;;;;;;5080619;28;20229;-87
2022/03/03 00:06:04;;;;;;;13.82;12.32;;;5.40;95.80;;;;;;5092015;28;20214;-87
2022/03/03 00:08:32;;;;;;;15.00;13.02;;;5.40;95.80;;;;;;5091505;28;20228;-88
2022/03/03 00:10:59;;;;;;;13.07;11.75;;;5.30;96.10;;;;;;5092891;28;20200;-88
2022/03/03 00:13:26;;;;;;;14.30;12.77;;;5.30;96.00;;;;;;5095467;28;20232;-86
2022/03/03 00:15:53;;;;;;;14.48;12.45;;;5.30;95.90;;;;;;5092875;28;20221;-87
2022/03/03 00:18:23;;;;;;;13.57;11.82;;;5.30;96.00;;;;;;5079851;28;20214;-86
2022/03/03 00:20:50;;;;;;;14.18;12.70;;;5.30;95.90;;;;;;5088079;28;20197;-86
2022/03/03 00:23:17;;;;;;;13.82;12.35;;;5.30;96.00;;;;;;5091867;28;20217;-86
2022/03/03 00:25:45;;;;;;;14.85;12.63;;;5.30;95.90;;;;;;5079113;28;20209;-86
2022/03/03 00:28:12;;;;;;;14.23;12.35;;;5.30;95.80;;;;;;5080516;28;20218;-86
2022/03/03 00:30:39;;;;;;;15.60;12.60;;;5.30;95.90;;;;;;5085139;28;20257;-87
2022/03/03 00:33:07;;;;;;;13.20;11.90;;;5.20;96.00;;;;;;5086920;28;20221;-87
2022/03/03 00:35:35;;;;;;;14.80;11.80;;;5.20;96.20;;;;;;5087847;28;20205;-87
2022/03/03 00:38:02;;;;;;;14.90;12.30;;;5.20;96.20;;;;;;5086231;28;20214;-86
2022/03/03 00:40:30;;;;;;;13.55;12.15;;;5.20;96.30;;;;;;5085809;28;20194;-87
2022/03/03 00:42:57;;;;;;;12.23;10.43;;;5.20;96.50;;;;;;5082990;28;20214;-85
2022/03/03 00:45:24;;;;;;;15.05;11.65;;;5.20;96.50;;;;;;5086525;28;20186;-86
2022/03/03 00:47:51;;;;;;;15.27;11.88;;;5.20;96.40;;;;;;5087085;28;20234;-86
2022/03/03 00:50:18;;;;;;;13.45;11.52;;;5.30;96.30;;;;;;5084845;28;20198;-85
2022/03/03 00:52:47;;;;;;;13.65;12.25;;;5.30;96.50;;;;;;5077676;28;20218;-86
2022/03/03 00:55:14;;;;;;;13.40;12.00;;;5.20;96.30;;;;;;5077541;28;20575;-86
2022/03/03 00:57:42;;;;;;;16.45;12.48;;;5.20;96.40;;;;;;5082172;28;20210;-86
2022/03/03 01:00:10;;;;;;;13.80;11.88;;;5.20;96.60;;;;;;5082435;28;20202;-85
2022/03/03 01:02:38;;;;;;;13.98;12.23;;;5.20;96.70;;;;;;5085227;28;20222;-86
2022/03/03 01:05:06;;;;;;;13.35;11.95;;;5.10;96.80;;;;;;5081351;28;20233;-85
2022/03/03 01:07:33;;;;;;;14.55;11.90;;;5.10;96.80;;;;;;5089197;28;20232;-86
2022/03/03 01:10:02;;;;;;;13.73;12.20;;;5.10;96.80;;;;;;5087992;28;20204;-86
2022/03/03 01:12:29;;;;;;;13.48;11.27;;;5.10;96.80;;;;;;5086770;28;20271;-85
2022/03/03 01:14:56;;;;;;;12.80;11.50;;;5.10;96.80;;;;;;5093059;28;20218;-86
2022/03/03 01:17:23;;;;;;;12.25;10.95;;;5.10;96.80;;;;;;5085935;28;20222;-86
2022/03/03 01:19:55;;;;;;;13.93;11.35;;;5.10;96.70;;;;;;5086572;28;20520;-86
2022/03/03 01:22:24;;;;;;;14.70;11.63;;;5.10;96.60;;;;;;5084136;28;20218;-86
2022/03/03 01:24:53;;;;;;;13.30;11.68;;;5.10;96.70;;;;;;5087873;28;20831;-86
2022/03/03 01:27:24;;;;;;;13.20;11.77;;;5.10;96.50;;;;;;5081224;28;20233;-85
2022/03/03 01:29:53;;;;;;;11.98;10.77;;;5.10;96.50;;;;;;5084067;28;20202;-86
2022/03/03 01:32:21;;;;;;;12.52;11.23;;;5.10;96.60;;;;;;5082441;28;20229;-86
2022/03/03 01:34:51;;;;;;;13.25;11.85;;;5.10;96.80;;;;;;5085648;28;20310;-86
2022/03/03 01:37:20;;;;;;;13.55;12.15;;;5.00;96.80;;;;;;5077590;28;20217;-86
2022/03/03 01:39:50;;;;;;;15.50;11.20;;;5.00;96.90;;;;;;5086523;28;20482;-85
2022/03/03 01:42:20;;;;;;;13.25;11.85;;;4.90;97.10;;;;;;5087444;28;20220;-85
2022/03/03 01:44:49;;;;;;;14.43;12.05;;;4.90;97.10;;;;;;5086632;28;20603;-85
2022/03/03 01:47:19;;;;;;;12.40;11.10;;;4.90;97.10;;;;;;5085676;28;20221;-86
2022/03/03 01:54:05;;;;;;;12.50;11.18;;;4.90;97.10;;;;;;5068341;27;20572;-73
2022/03/03 01:56:32;;;;;;;14.38;11.73;;;4.90;97.20;;;;;;5046162;28;20218;-72
2022/03/03 01:58:59;;;;;;;14.82;11.88;;;4.80;97.40;;;;;;5027349;28;20215;-72
2022/03/03 02:01:28;;;;;;;13.43;11.95;;;4.80;97.50;;;;;;5034292;28;20211;-73
2022/03/03 02:03:55;;;;;;;15.23;12.73;;;4.80;97.70;;;;;;5027609;28;20329;-73
2022/03/03 02:06:22;;;;;;;13.02;11.63;;;4.80;97.70;;;;;;5027956;28;20206;-73
2022/03/03 02:08:49;;;;;;;14.38;12.88;;;4.70;97.90;;;;;;5037718;28;20215;-73
2022/03/03 02:11:17;;;;;;;13.70;12.20;;;4.70;97.90;;;;;;5040540;28;20199;-73
2022/03/03 02:13:44;;;;;;;13.73;11.52;;;4.70;97.90;;;;;;5040714;28;20268;-73
2022/03/03 02:16:11;;;;;;;13.55;11.95;;;4.70;97.90;;;;;;5041084;28;20653;-74
2022/03/03 02:18:41;;;;;;;13.57;12.13;;;4.60;97.80;;;;;;5037223;28;20316;-73
2022/03/03 02:21:12;;;;;;;13.98;11.65;;;4.60;97.80;;;;;;5042834;28;20211;-73
2022/03/03 02:23:39;;;;;;;14.52;11.80;;;4.70;97.80;;;;;;5040091;28;21914;-73
2022/03/03 02:26:08;;;;;;;12.80;11.45;;;4.70;97.80;;;;;;5041602;28;20214;-73
2022/03/03 02:28:35;;;;;;;13.35;11.57;;;4.70;97.70;;;;;;5042533;28;20737;-73
2022/03/03 02:31:02;;;;;;;14.02;11.38;;;4.70;97.70;;;;;;5041920;28;20218;-73
2022/03/03 02:33:29;;;;;;;12.63;10.65;;;4.70;97.70;;;;;;5040058;28;20219;-72
2022/03/03 02:35:57;;;;;;;12.90;11.60;;;4.70;97.90;;;;;;5041965;28;20204;-73
2022/03/03 02:38:25;;;;;;;13.18;11.77;;;4.60;97.90;;;;;;5043370;28;20214;-73
2022/03/03 02:40:52;;;;;;;13.02;11.68;;;4.60;97.80;;;;;;5044148;28;20207;-73
2022/03/03 02:43:21;;;;;;;12.80;11.48;;;4.60;97.90;;;;;;5041431;28;20207;-72
2022/03/03 02:45:48;;;;;;;13.40;12.00;;;4.60;97.80;;;;;;5041033;28;20231;-73
2022/03/03 02:48:15;;;;;;;14.05;11.70;;;4.60;97.80;;;;;;5038057;28;20963;-73
2022/03/03 02:50:42;;;;;;;13.70;12.13;;;4.50;97.90;;;;;;5037335;28;20203;-73
2022/03/03 02:53:09;;;;;;;12.45;11.15;;;4.50;98.00;;;;;;5042813;28;20231;-74
2022/03/03 02:55:37;;;;;;;17.83;12.55;;;4.50;97.90;;;;;;5056365;28;20268;-73
2022/03/03 02:58:05;;;;;;;13.85;12.45;;;4.50;98.00;;;;;;5041820;28;20226;-73
2022/03/03 03:00:39;;;;;;;16.45;11.73;;;4.50;97.90;;;;;;5038026;28;20676;-73
2022/03/03 03:03:06;;;;;;;13.20;11.60;;;4.50;97.90;;;;;;5040545;28;20297;-73
2022/03/03 03:05:33;;;;;;;13.60;12.20;;;4.50;98.00;;;;;;5024728;28;20199;-73
2022/03/03 03:08:00;;;;;;;13.02;11.60;;;4.50;98.00;;;;;;5026781;28;20641;-73
2022/03/03 03:10:27;;;;;;;12.40;11.10;;;4.50;98.00;;;;;;5026839;28;20196;-73
2022/03/03 03:12:56;;;;;;;15.00;11.75;;;4.40;98.00;;;;;;5028494;28;20224;-73
2022/03/03 03:15:23;;;;;;;13.75;12.35;;;4.40;97.90;;;;;;5026361;28;20199;-72
2022/03/03 03:17:51;;;;;;;13.88;12.30;;;4.30;98.00;;;;;;5027615;28;20228;-73
2022/03/03 03:20:18;;;;;;;12.38;11.07;;;4.30;98.20;;;;;;5027127;28;20199;-73
2022/03/03 03:22:45;;;;;;;12.02;10.77;;;4.20;98.20;;;;;;5027200;28;20238;-73
2022/03/03 03:25:14;;;;;;;14.32;12.55;;;4.20;98.30;;;;;;5029442;28;20574;-73
2022/03/03 03:27:43;;;;;;;11.63;10.48;;;4.10;98.40;;;;;;5026374;28;20228;-73
2022/03/03 03:30:13;;;;;;;13.60;11.35;;;4.10;98.40;;;;;;5028578;28;20191;-73
2022/03/03 03:32:40;;;;;;;14.60;12.38;;;4.10;98.40;;;;;;5026822;28;20238;-73
2022/03/03 03:35:08;;;;;;;12.65;11.10;;;4.10;98.40;;;;;;5026413;28;20210;-73
2022/03/03 03:37:36;;;;;;;11.80;10.60;;;4.10;98.40;;;;;;5025582;28;20215;-73
2022/03/03 03:40:03;;;;;;;12.57;11.27;;;4.00;98.40;;;;;;5027813;28;20203;-73
2022/03/03 03:42:30;;;;;;;13.00;11.48;;;4.00;98.40;;;;;;5024344;28;20200;-73
2022/03/03 03:44:57;;;;;;;12.70;10.77;;;4.00;98.40;;;;;;5028059;28;20227;-73
2022/03/03 03:47:26;;;;;;;12.25;10.98;;;4.00;98.40;;;;;;5030469;28;20654;-72
2022/03/03 03:49:53;;;;;;;13.07;10.88;;;3.90;98.30;;;;;;5038070;28;20200;-73
2022/03/03 03:52:20;;;;;;;12.02;10.70;;;3.90;98.40;;;;;;5028088;28;20586;-73
2022/03/03 03:54:47;;;;;;;14.63;12.32;;;3.90;98.40;;;;;;5040301;28;20524;-73
2022/03/03 03:57:14;;;;;;;14.20;12.02;;;3.80;98.40;;;;;;5029271;28;20211;-73
2022/03/03 03:59:41;;;;;;;15.13;12.25;;;3.80;98.30;;;;;;5030060;28;20631;-73
2022/03/03 04:02:08;;;;;;;13.15;11.77;;;3.70;98.40;;;;;;5034415;28;20723;-73
2022/03/03 04:04:37;;;;;;;13.25;11.85;;;3.60;98.60;;;;;;5013783;28;20231;-73
2022/03/03 04:07:04;;;;;;;12.93;11.52;;;3.60;98.60;;;;;;5011374;28;20219;-73
2022/03/03 04:09:31;;;;;;;12.35;11.00;;;3.60;98.50;;;;;;5007293;28;20317;-72
2022/03/03 04:11:58;;;;;;;13.60;11.10;;;3.60;98.60;;;;;;5011333;28;20208;-73
2022/03/03 04:14:25;;;;;;;12.45;11.15;;;3.50;98.60;;;;;;5010372;28;20224;-72
2022/03/03 04:16:52;;;;;;;10.93;9.82;;;3.50;98.60;;;;;;5006258;28;20745;-73
2022/03/03 04:19:19;;;;;;;12.13;10.93;;;3.50;98.40;;;;;;5025236;28;20277;-73
2022/03/03 04:21:48;;;;;;;12.82;11.15;;;3.50;98.40;;;;;;5032877;28;20576;-74
2022/03/03 04:24:15;;;;;;;11.60;10.40;;;3.50;98.30;;;;;;5011997;28;20782;-74
2022/03/03 04:26:42;;;;;;;11.57;10.38;;;3.50;98.30;;;;;;5002970;28;20223;-73
2022/03/03 04:29:09;;;;;;;11.45;9.75;;;3.50;98.40;;;;;;5023498;28;20723;-73
2022/03/03 04:31:36;;;;;;;10.25;9.18;;;3.40;98.50;;;;;;5031656;28;20199;-73
2022/03/03 04:34:03;;;;;;;12.48;11.18;;;3.40;98.60;;;;;;5027519;28;20293;-73
2022/03/03 04:36:30;;;;;;;10.98;9.80;;;3.40;98.70;;;;;;5025440;28;20246;-72
2022/03/03 04:38:59;;;;;;;12.52;10.27;;;3.40;98.70;;;;;;5012213;28;20277;-73
2022/03/03 04:41:26;;;;;;;11.60;10.40;;;3.40;98.90;;;;;;5012376;28;20200;-72
2022/03/03 04:43:53;;;;;;;10.48;9.45;;;3.40;99.00;;;;;;5018387;28;20587;-73
2022/03/03 04:46:20;;;;;;;12.52;10.60;;;3.40;99.00;;;;;;5007639;28;20266;-73
2022/03/03 04:48:47;;;;;;;10.48;9.38;;;3.30;98.90;;;;;;5005928;28;20940;-72
2022/03/03 04:51:14;;;;;;;10.48;9.40;;;3.30;99.00;;;;;;5007166;28;20228;-73
2022/03/03 04:53:42;;;;;;;12.02;10.50;;;3.30;99.00;;;;;;5015206;28;20211;-72
2022/03/03 04:56:10;;;;;;;11.02;9.93;;;3.30;99.40;;;;;;5027441;28;20211;-73
2022/03/03 04:58:40;;;;;;;12.15;10.48;;;3.30;99.00;;;;;;5025438;28;20223;-73
2022/03/03 05:01:07;;;;;;;13.45;11.30;;;3.30;99.10;;;;;;5033884;28;20563;-73
2022/03/03 05:03:34;;;;;;;9.77;8.75;;;3.30;99.10;;;;;;5024997;28;20262;-73
2022/03/03 05:06:01;;;;;;;11.50;9.57;;;3.30;99.00;;;;;;5005336;28;20205;-73
2022/03/03 05:08:28;;;;;;;11.35;10.15;;;3.30;98.80;;;;;;5005767;28;20220;-71
2022/03/03 05:10:55;;;;;;;11.20;10.00;;;3.30;98.80;;;;;;5006929;28;20442;-73
2022/03/03 05:13:24;;;;;;;11.68;10.02;;;3.20;98.80;;;;;;5013608;28;20227;-73
2022/03/03 05:15:51;;;;;;;12.15;10.95;;;3.20;98.90;;;;;;5027114;28;20269;-72
2022/03/03 05:18:18;;;;;;;11.23;10.05;;;3.10;99.10;;;;;;5027389;28;20281;-73
2022/03/03 05:20:45;;;;;;;11.88;10.35;;;3.10;99.20;;;;;;5025446;28;20314;-73
2022/03/03 05:23:12;;;;;;;11.52;10.32;;;3.00;99.10;;;;;;5030388;28;20861;-73
2022/03/03 05:25:39;;;;;;;11.55;10.07;;;3.00;99.20;;;;;;5029559;28;20625;-73
2022/03/03 05:28:07;;;;;;;12.13;10.65;;;3.00;99.20;;;;;;5040358;23;20223;-75
2022/03/03 05:30:37;;;;;;;13.25;10.68;;;3.00;99.20;;;;;;5024545;28;20298;-75
2022/03/03 05:33:05;;;;;;;13.02;10.15;;;3.00;99.20;;;;;;5024893;28;20534;-73
2022/03/03 05:35:32;;;;;;;12.05;10.27;;;3.00;99.30;;;;;;5024961;28;20650;-75
2022/03/03 05:37:59;;;;;;;16.50;11.50;;;2.90;99.30;;;;;;5022547;28;20220;-74
2022/03/03 05:40:27;;;;;;;13.23;11.52;;;2.90;99.40;;;;;;5027796;28;20199;-75
2022/03/03 05:42:54;;;;;;;12.07;10.88;;;2.90;99.50;;;;;;5024621;28;20217;-75
2022/03/03 05:45:21;;;;;;;13.05;11.43;;;2.90;99.40;;;;;;5023829;28;20206;-74
2022/03/03 05:47:49;;;;;;;13.02;11.55;;;2.80;99.60;;;;;;5022936;28;20220;-75
2022/03/03 05:50:17;;;;;;;13.20;11.13;;;2.80;99.60;;;;;;5020436;28;20200;-75
2022/03/03 05:52:44;;;;;;;13.68;11.82;;;2.80;99.70;;;;;;5022422;28;20200;-75
2022/03/03 05:55:11;;;;;;;14.32;11.57;;;2.80;99.70;;;;;;5021978;28;20215;-75
2022/03/03 05:57:44;;;;;;;12.60;11.30;;;2.80;99.80;;;;;;5025419;28;20615;-76
2022/03/03 06:00:13;;;;;;;12.73;11.43;;;2.80;99.70;;;;;;5022182;28;20258;-76
2022/03/03 06:02:47;;;;;;;13.38;11.93;;;2.80;99.90;;;;;;5023853;28;20246;-75
2022/03/03 06:05:18;;;;;;;15.10;12.43;;;2.80;99.90;;;;;;5020902;28;20301;-75
2022/03/03 06:07:50;;;;;;;15.15;13.32;;;2.80;99.70;;;;;;5028853;28;20277;-74
2022/03/03 06:10:23;;;;;;;15.18;13.43;;;2.80;99.90;;;;;;5022877;28;20223;-75
2022/03/03 06:12:55;;;;;;;13.77;12.38;;;2.70;99.90;;;;;;5024974;28;20200;-75
2022/03/03 06:15:23;;;;;;;16.25;13.25;;;2.60;99.90;;;;;;5025364;28;20242;-76
2022/03/03 06:17:51;;;;;;;13.68;12.27;;;2.60;99.90;;;;;;5022223;28;20298;-77
2022/03/03 06:20:19;;;;;;;12.20;11.00;;;2.60;99.90;;;;;;5022200;28;20219;-76
2022/03/03 06:22:47;;;;;;;13.07;11.65;;;2.60;99.90;;;;;;5020910;28;20601;-74
2022/03/03 06:25:14;;;;;;;12.82;11.45;;;2.60;99.90;;;;;;5020796;28;20211;-75
2022/03/03 06:27:41;;;;;;;13.85;12.32;;;2.70;99.90;;;;;;5018263;28;20230;-77
2022/03/03 06:30:09;;;;;;;14.35;12.48;;;2.80;99.90;;;;;;5021892;28;20761;-75
2022/03/03 06:32:36;;;;;;;14.57;12.07;;;2.80;99.90;;;;;;5026487;28;20200;-76
2022/03/03 06:35:03;;;;;;;17.13;13.27;;;2.90;99.70;;;;;;5024478;28;20282;-76
2022/03/03 06:37:33;;;;;;;15.63;12.73;;;2.90;99.70;;;;;;5025329;28;20243;-74
2022/03/03 06:40:00;;;;;;;13.23;11.93;;;2.90;99.70;;;;;;5030122;28;20314;-76
2022/03/03 06:42:27;;;;;;;13.50;12.10;;;2.80;99.90;;;;;;5028658;28;20203;-76
2022/03/03 06:44:54;;;;;;;13.40;11.05;;;2.80;99.90;;;;;;5029519;28;20219;-74
2022/03/03 06:47:21;;;;;;;12.65;11.30;;;2.90;99.90;;;;;;5028375;28;20196;-77
2022/03/03 06:49:49;;;;;;;13.93;10.95;;;2.90;99.90;;;;;;5028457;28;20811;-76
2022/03/03 06:52:17;;;;;;;13.35;11.95;;;2.90;99.90;;;;;;5027202;28;20206;-76
2022/03/03 06:54:49;;;;;;;14.63;12.55;;;2.90;99.90;;;;;;5027538;28;20223;-77
2022/03/03 06:57:21;;;;;;;12.45;11.13;;;3.00;99.90;;;;;;5028745;28;20349;-76
2022/03/03 06:59:48;;;;;;;15.48;11.00;;;3.00;99.90;;;;;;5029665;28;20600;-80
2022/03/03 07:02:15;;;;;;;12.40;11.10;;;3.10;99.90;;;;;;5025553;28;20209;-79
2022/03/03 07:04:44;;;;;;;12.38;11.05;;;3.20;99.90;;;;;;5031563;28;20207;-78
2022/03/03 07:07:13;;;;;;;13.95;11.93;;;3.20;99.50;;;;;;5035945;28;20200;-79
2022/03/03 07:09:41;;;;;;;12.38;10.95;;;3.20;99.40;;;;;;5032747;28;20216;-81
2022/03/03 07:12:11;;;;;;;12.30;10.90;;;3.70;99.30;;;;;;5033596;28;20573;-79
2022/03/03 07:14:38;;;;;;;11.77;10.57;;;4.50;98.50;;;;;;5036305;28;20286;-79
2022/03/03 07:17:11;;;;;;;10.70;9.60;;;5.30;97.70;;;;;;5036542;28;20223;-81
2022/03/03 07:19:53;;;;;;;14.20;11.85;;;6.10;97.00;;;;;;5026606;28;20255;-79
2022/03/03 07:22:23;;;;;;;13.05;10.80;;;6.60;95.50;;;;;;5032216;28;20265;-80
2022/03/03 07:24:58;;;;;;;11.73;10.52;;;7.00;95.20;;;;;;5032171;28;20215;-78
2022/03/03 07:27:27;;;;;;;11.82;10.63;;;7.30;94.80;;;;;;5032899;28;20245;-78
2022/03/03 07:29:57;;;;;;;12.65;10.40;;;7.60;94.40;;;;;;5031190;28;20231;-78
2022/03/03 07:32:33;;;;;;;14.15;12.10;;;7.90;94.20;;;;;;5039561;28;20195;-79
2022/03/03 07:35:03;;;;;;;11.52;10.18;;;8.30;94.00;;;;;;5028612;28;20317;-79
2022/03/03 07:37:35;;;;;;;13.25;10.45;;;8.70;93.40;;;;;;5027334;28;20223;-79
2022/03/03 07:40:07;;;;;;;11.80;10.60;;;9.30;92.90;;;;;;5031895;28;20223;-80
2022/03/03 07:42:36;;;;;;;12.43;11.13;;;9.70;92.30;;;;;;5027649;28;20290;-77
2022/03/03 07:45:04;;;;;;;13.57;11.27;;;10.00;91.60;;;;;;5026727;28;20227;-77
2022/03/03 07:47:31;;;;;;;13.30;11.90;;;10.00;91.90;;;;;;5028169;28;20287;-78
2022/03/03 07:49:59;;;;;;;12.80;11.00;;;10.20;92.30;;;;;;5029813;28;20256;-79
2022/03/03 07:52:26;;;;;;;14.10;11.45;;;10.40;92.20;;;;;;5031216;28;20253;-77
2022/03/03 07:54:54;;;;;;;12.85;11.20;;;10.60;91.50;;;;;;5032256;28;20219;-78
2022/03/03 07:57:23;;;;;;;13.40;11.85;;;10.90;91.80;;;;;;5029475;28;20195;-79
2022/03/03 08:00:02;;;;;;;12.23;11.02;;;11.00;90.80;;;;;;5030003;28;20710;-80
2022/03/03 08:02:33;;;;;;;12.85;10.52;;;11.10;90.60;;;;;;5030376;28;20210;-80
2022/03/03 08:05:02;;;;;;;12.43;11.13;;;11.20;90.40;;;;;;5031825;28;20231;-79
2022/03/03 08:07:29;;;;;;;11.82;10.30;;;11.30;90.30;;;;;;5028503;28;20235;-80
2022/03/03 08:10:02;;;;;;;11.82;10.57;;;11.40;90.30;;;;;;5021058;28;20495;-77
2022/03/03 08:12:31;;;;;;;11.90;10.65;;;11.50;90.00;;;;;;5026841;28;20550;-79
2022/03/03 08:15:01;;;;;;;11.20;10.05;;;11.60;89.90;;;;;;5024429;28;20812;-78
2022/03/03 08:17:28;;;;;;;12.52;10.55;;;11.80;89.80;;;;;;5024210;28;20222;-78
2022/03/03 08:19:56;;;;;;;13.00;11.25;;;12.00;88.70;;;;;;5025359;28;20293;-79
2022/03/03 08:22:26;;;;;;;11.10;9.85;;;12.10;88.00;;;;;;5029333;28;20297;-80
2022/03/03 08:24:55;;;;;;;12.98;11.55;;;11.90;87.70;;;;;;5026128;28;20227;-79
2022/03/03 08:27:23;;;;;;;13.00;10.63;;;12.00;87.10;;;;;;5025707;28;20574;-79
2022/03/03 08:29:50;;;;;;;11.82;10.38;;;11.80;87.30;;;;;;5026543;28;20748;-78
2022/03/03 08:32:20;;;;;;;12.00;10.73;;;12.10;87.30;;;;;;5028064;28;20212;-78
2022/03/03 08:34:58;;;;;;;13.93;11.48;;;12.40;86.70;;;;;;5028167;28;20637;-77
2022/03/03 08:37:30;;;;;;;12.85;10.70;;;12.40;87.80;;;;;;5022672;28;20210;-78
2022/03/03 08:40:00;;;;;;;12.10;10.80;;;12.40;87.00;;;;;;5026137;28;20640;-77
2022/03/03 08:42:35;;;;;;;11.73;10.52;;;12.30;86.80;;;;;;5026437;28;20253;-80
2022/03/03 08:45:04;;;;;;;11.82;10.40;;;12.30;84.90;;;;;;5032553;28;20227;-77
2022/03/03 08:47:33;;;;;;;11.18;9.95;;;12.10;85.70;;;;;;5027589;28;20230;-77
2022/03/03 08:50:03;;;;;;;10.98;9.88;;;12.00;84.80;;;;;;5025803;28;20612;-78
2022/03/03 08:52:31;;;;;;;12.40;10.25;;;12.00;83.40;;;;;;5027636;28;20210;-78
2022/03/03 08:54:58;;;;;;;11.00;9.80;;;11.80;85.40;;;;;;5027317;28;20235;-81
2022/03/03 08:57:25;;;;;;;13.65;9.85;;;11.70;86.00;;;;;;5030858;28;20222;-78
2022/03/03 08:59:52;;;;;;;9.65;8.57;;;11.90;85.30;;;;;;5025030;28;20281;-79
2022/03/03 09:02:20;;;;;;;10.93;9.32;;;12.10;85.30;;;;;;5024133;28;20253;-79
2022/03/03 09:04:48;;;;;;;10.02;8.48;;;12.50;85.00;;;;;;5023245;28;20747;-77
2022/03/03 09:07:16;;;;;;;9.13;8.20;;;12.80;82.40;;;;;;5025135;28;21247;-79
2022/03/03 09:09:43;;;;;;;10.15;8.98;;;13.20;82.30;;;;;;5027374;28;20230;-79
2022/03/03 09:12:13;;;;;;;9.52;8.50;;;13.50;81.50;;;;;;5025840;28;20681;-77
2022/03/03 09:14:40;;;;;;;12.73;9.32;;;13.40;81.40;;;;;;5024610;28;20223;-76
2022/03/03 09:17:07;;;;;;;10.68;9.60;;;13.30;80.50;;;;;;5027069;28;20207;-79
2022/03/03 09:19:34;;;;;;;10.63;9.10;;;13.30;80.40;;;;;;5025215;28;20600;-79
2022/03/03 09:22:04;;;;;;;12.55;7.97;;;13.20;78.70;;;;;;5027915;28;20287;-77
2022/03/03 09:24:32;;;;;;;10.40;8.70;;;13.30;78.70;;;;;;5024657;28;20310;-77
2022/03/03 09:26:59;;;;;;;8.95;8.10;;;13.30;79.60;;;;;;5027651;28;20219;-78
2022/03/03 09:29:28;;;;;;;8.63;7.75;;;13.60;79.00;;;;;;5029871;28;20281;-79
2022/03/03 09:31:55;;;;;;;11.23;9.27;;;14.00;77.30;;;;;;5023680;28;20204;-78
2022/03/03 09:34:23;;;;;;;9.85;8.82;;;14.30;74.90;;;;;;5026906;28;20215;-79
2022/03/03 09:36:50;;;;;;;11.55;9.50;;;14.10;76.10;;;;;;5024565;28;20753;-77
2022/03/03 09:39:19;;;;;;;10.23;9.23;;;13.80;75.20;;;;;;5024448;28;20223;-77
2022/03/03 09:41:46;;;;;;;12.70;8.75;;;13.90;75.70;;;;;;5024347;28;20261;-78
2022/03/03 09:44:13;;;;;;;10.63;8.70;;;13.80;76.70;;;;;;5027683;28;20223;-77
2022/03/03 09:46:40;;;;;;;11.00;9.90;;;14.10;76.30;;;;;;5026000;28;20283;-78
2022/03/03 09:49:07;;;;;;;11.82;9.30;;;13.90;75.20;;;;;;5021399;28;20234;-79
2022/03/03 09:51:34;;;;;;;9.85;8.85;;;13.80;75.10;;;;;;5024940;28;20195;-78
2022/03/03 09:54:01;;;;;;;10.30;9.30;;;13.80;75.60;;;;;;5025751;28;20219;-78
2022/03/03 09:56:30;;;;;;;10.50;9.50;;;13.70;75.30;;;;;;5028375;28;20769;-78
2022/03/03 09:58:57;;;;;;;10.13;9.05;;;13.60;74.20;;;;;;5031558;28;20227;-76
2022/03/03 10:01:28;;;;;;;10.82;9.40;;;13.80;75.90;;;;;;5024060;28;20192;-78
2022/03/03 10:03:59;;;;;;;11.15;9.68;;;14.00;75.00;;;;;;5023962;28;20219;-77
2022/03/03 10:06:26;;;;;;;10.82;9.73;;;14.10;74.20;;;;;;5027951;28;20862;-75
2022/03/03 10:08:54;;;;;;;11.25;10.15;;;14.40;74.90;;;;;;5031683;28;20220;-78
2022/03/03 10:11:21;;;;;;;11.63;10.45;;;14.70;74.50;;;;;;5030996;28;20203;-78
2022/03/03 10:13:52;;;;;;;10.85;9.23;;;15.00;73.60;;;;;;5026746;28;20195;-79
2022/03/03 10:16:24;;;;;;;12.18;10.55;;;14.90;73.60;;;;;;5030588;28;20211;-79
2022/03/03 10:19:03;;;;;;;12.68;10.35;;;15.10;73.70;;;;;;5029623;28;20223;-78
2022/03/03 10:21:32;;;;;;;12.57;11.23;;;14.60;72.60;;;;;;5030861;28;20638;-79
2022/03/03 10:24:01;;;;;;;12.18;10.50;;;14.30;72.90;;;;;;5027330;28;20245;-79
2022/03/03 10:26:39;;;;;;;11.48;9.80;;;14.10;74.00;;;;;;5029127;28;20258;-78
2022/03/03 10:29:19;;;;;;;11.70;10.50;;;14.10;74.90;;;;;;5027300;28;20231;-78
2022/03/03 10:31:47;;;;;;;12.52;11.20;;;14.10;74.60;;;;;;5027379;28;20561;-79
2022/03/03 10:34:19;;;;;;;14.05;11.93;;;13.60;75.00;;;;;;5030302;28;20223;-78
2022/03/03 10:36:57;;;;;;;12.10;10.75;;;13.50;76.40;;;;;;5033268;28;20216;-77
2022/03/03 10:39:24;;;;;;;13.02;11.27;;;13.90;75.10;;;;;;5026803;28;20717;-78
2022/03/03 10:41:56;;;;;;;12.88;10.82;;;14.20;75.80;;;;;;5029099;28;20725;-76
2022/03/03 10:44:29;;;;;;;13.30;10.82;;;14.40;75.00;;;;;;5027267;28;20224;-78
2022/03/03 10:47:06;;;;;;;11.45;10.35;;;14.40;74.10;;;;;;5031410;28;20565;-78
2022/03/03 10:49:35;;;;;;;11.95;10.40;;;14.20;73.30;;;;;;5031636;28;20663;-78
2022/03/03 10:52:14;;;;;;;12.50;10.98;;;14.20;73.10;;;;;;5039369;28;20214;-79
2022/03/03 10:54:55;;;;;;;12.70;10.45;;;14.40;73.10;;;;;;5034722;28;20247;-80
2022/03/03 10:57:34;;;;;;;12.82;10.63;;;14.80;74.10;;;;;;5023382;28;20202;-78
2022/03/03 11:00:06;;;;;;;13.23;10.88;;;14.80;72.20;;;;;;5028154;28;20219;-78
2022/03/03 11:02:35;;;;;;;12.38;10.23;;;15.10;72.90;;;;;;5026240;28;20200;-78
2022/03/03 11:05:02;;;;;;;12.70;10.45;;;15.00;71.40;;;;;;5031859;28;20293;-77
2022/03/03 11:07:30;;;;;;;12.95;10.98;;;14.90;71.40;;;;;;5029161;28;20227;-79
2022/03/03 11:09:58;;;;;;;11.68;10.48;;;15.00;72.00;;;;;;5030809;28;20234;-78
2022/03/03 11:12:27;;;;;;;12.75;11.43;;;15.20;72.60;;;;;;5033194;28;20223;-78
2022/03/03 11:14:56;;;;;;;12.48;10.30;;;15.10;72.90;;;;;;5029759;28;20255;-79
2022/03/03 11:17:26;;;;;;;12.80;11.50;;;15.10;73.50;;;;;;5034121;28;20263;-79
2022/03/03 11:19:58;;;;;;;12.32;11.02;;;14.90;72.50;;;;;;5032612;28;20231;-78
2022/03/03 11:22:26;;;;;;;12.93;11.25;;;14.90;73.30;;;;;;5029416;28;20195;-79
2022/03/03 11:24:57;;;;;;;11.85;10.68;;;15.00;72.20;;;;;;5026262;28;20224;-79
2022/03/03 11:27:35;;;;;;;14.18;11.52;;;15.00;72.60;;;;;;5030642;28;20195;-77
2022/03/03 11:30:19;;;;;;;14.10;11.18;;;14.70;72.10;;;;;;5083698;23;20233;-78
2022/03/03 11:33:22;;;;;;;15.23;12.02;;;14.60;74.00;;;;;;5042680;28;20203;-83
2022/03/03 11:35:50;;;;;;;15.73;14.00;;;14.90;73.60;;;;;;5043505;28;20304;-77
2022/03/03 11:38:17;;;;;;;17.13;12.07;;;14.70;74.20;;;;;;5048499;28;20194;-79
2022/03/03 11:40:56;;;;;;;14.45;13.05;;;14.70;75.40;;;;;;5057233;28;20553;-77
2022/03/03 11:43:24;;;;;;;15.38;13.07;;;14.70;75.00;;;;;;5058559;28;20573;-79
2022/03/03 11:45:52;;;;;;;15.85;13.13;;;14.60;75.80;;;;;;5064456;28;20551;-76
2022/03/03 11:48:22;;;;;;;16.02;12.90;;;14.60;78.50;;;;;;5061829;28;20195;-76
2022/03/03 11:50:50;;;;;;;14.02;11.35;;;14.60;76.00;;;;;;5065307;28;20731;-79
2022/03/03 11:53:20;;;;;;;17.27;12.73;;;14.80;76.60;;;;;;5070043;28;20198;-76
2022/03/03 11:55:56;;;;;;;15.60;12.52;;;14.90;75.40;;;;;;5064555;28;20236;-76
2022/03/03 11:58:28;;;;;;;14.20;12.23;;;15.00;73.70;;;;;;5062090;28;20209;-76
2022/03/03 12:01:11;;;;;;;12.40;11.20;;;15.00;74.90;;;;;;5065279;28;20221;-75
2022/03/03 12:04:05;;;;;;;13.00;11.70;;;14.80;74.20;;;;;;5055521;28;20232;-76
2022/03/03 12:06:40;;;;;;;14.55;12.77;;;14.80;74.00;;;;;;5060110;28;20214;-82
2022/03/03 12:09:22;;;;;;;13.88;11.65;;;14.80;75.50;;;;;;5060293;28;20221;-79
2022/03/03 12:11:50;;;;;;;15.25;11.80;;;14.70;74.30;;;;;;5056154;28;20230;-76
2022/03/03 12:14:31;;;;;;;14.23;11.00;;;14.50;74.50;;;;;;5060565;28;20267;-85
2022/03/03 12:17:38;;;;;;;13.57;12.10;;;14.60;74.30;;;;;;5039027;28;20632;-78
2022/03/03 12:20:30;;;;;;;13.35;11.95;;;14.90;73.80;;;;;;5029732;28;20268;-77
2022/03/03 12:23:04;;;;;;;13.65;12.25;;;15.20;73.80;;;;;;5040246;28;20294;-78
2022/03/03 12:25:58;;;;;;;13.32;11.93;;;15.60;73.90;;;;;;5046955;28;20240;-75
2022/03/03 12:28:27;;;;;;;15.27;13.68;;;15.70;71.90;;;;;;5050061;28;20274;-77
2022/03/03 12:30:55;;;;;;;19.15;13.57;;;15.60;72.30;;;;;;5058215;28;20234;-79
2022/03/03 12:33:24;;;;;;;14.93;13.20;;;15.40;72.80;;;;;;5058162;28;20289;-76
2022/03/03 12:35:58;;;;;;;15.40;13.65;;;15.10;73.30;;;;;;5062272;28;20515;-77
2022/03/03 12:38:26;;;;;;;20.33;14.00;;;14.90;74.30;;;;;;5061083;28;20195;-82
2022/03/03 12:40:54;;;;;;;15.40;12.85;;;14.80;75.40;;;;;;5048497;28;20227;-80
2022/03/03 12:43:22;;;;;;;13.85;12.40;;;14.90;74.70;;;;;;5042164;28;20267;-80
2022/03/03 12:45:49;;;;;;;15.65;12.15;;;15.10;73.90;;;;;;5056611;28;20685;-76
2022/03/03 12:48:28;;;;;;;14.88;11.60;;;15.40;74.20;;;;;;5053448;28;20201;-82
2022/03/03 12:51:02;;;;;;;14.75;12.40;;;16.00;74.90;;;;;;5056100;28;20257;-77